Погода Верхопеньена неделю

Белгородская область, Россия

16 - 22 июля
  • 16июля
    Сегодня
    +19°
    +34°
    Небольшая облачность
    ВремяПогодаТемператураВлажностьДавлениеВетер, м/сВероятность осадков
    00:00Ясно и безоблачно+23°C67 %746 мм0.2 м/с2 %
    03:00Практически безоблачно+22°C79 %746 мм0.2 м/с2 %
    06:00Ясно и безоблачно+21°C80 %746 мм0.0 м/с2 %
    09:00Ясно и безоблачно+29°C54 %747 мм0.2 м/с2 %
    12:00Небольшая облачность+32°C43 %747 мм1.1 м/с2 %
    15:00Небольшая облачность+34°C38 %746 мм1.4 м/с2 %
    18:00Практически безоблачно+32°C40 %746 мм0.8 м/с1 %
    21:00Ясно и безоблачно+26°C54 %746 мм0.6 м/с1 %
  • 17июля
    Среда
    +19°
    +35°
    Практически безоблачно
    ВремяПогодаТемператураВлажностьДавлениеВетер, м/сВероятность осадков
    00:00Ясно и безоблачно+23°C64 %746 мм0.5 м/с2 %
    03:00Ясно и безоблачно+21°C72 %746 мм0.6 м/с2 %
    06:00Ясно и безоблачно+21°C75 %747 мм0.4 м/с2 %
    09:00Ясно и безоблачно+29°C54 %747 мм0.3 м/с2 %
    12:00Ясно и безоблачно+33°C41 %747 мм0.1 м/с2 %
    15:00Практически безоблачно+34°C36 %747 мм0.6 м/с2 %
    18:00Ясно и безоблачно+33°C37 %746 мм0.5 м/с2 %
    21:00Ясно и безоблачно+27°C54 %746 мм0.2 м/с2 %
  • 18июля
    Четверг
    +20°
    +37°
    Практически безоблачно
    ВремяПогодаТемператураВлажностьДавлениеВетер, м/сВероятность осадков
    00:00Ясно и безоблачно+23°C65 %746 мм0.0 м/с2 %
    03:00Ясно и безоблачно+22°C74 %746 мм0.0 м/с2 %
    06:00Ясно и безоблачно+22°C74 %746 мм0.0 м/с2 %
    09:00Ясно и безоблачно+30°C50 %746 мм0.0 м/с2 %
    12:00Ясно и безоблачно+33°C38 %746 мм0.0 м/с3 %
    15:00Практически безоблачно+33°C43 %745 мм2.0 м/с17 %
    18:00Ясно и безоблачно+31°C46 %744 мм1.6 м/с30 %
    21:00Облачно с прояснениями+25°C61 %745 мм0.9 м/с10 %
  • 19июля
    Пятница
    +17°
    +31°
    Ясно и безоблачно
    ВремяПогодаТемператураВлажностьДавлениеВетер, м/сВероятность осадков
    00:00Небольшая облачность+23°C77 %744 мм0.7 м/с5 %
    03:00Небольшая облачность+22°C88 %744 мм0.7 м/с3 %
    06:00Небольшая облачность+21°C87 %744 мм1.2 м/с11 %
    09:00Небольшая облачность, возможен дождь с грозой+24°C77 %744 мм2.8 м/с29 %
    12:00Небольшая облачность и лёгкий дождик+29°C50 %744 мм3.5 м/с54 %
    15:00Ясно и безоблачно+31°C41 %744 мм3.2 м/с42 %
    18:00Ясно и безоблачно+28°C39 %743 мм2.1 м/с33 %
    21:00Ясно и безоблачно+24°C49 %744 мм1.5 м/с16 %
  • 20июля
    Суббота
    +15°
    +30°
    Практически безоблачно
    ВремяПогодаТемператураВлажностьДавлениеВетер, м/сВероятность осадков
    00:00Ясно и безоблачно+20°C58 %743 мм0.6 м/с4 %
    03:00Облачно с прояснениями+19°C66 %743 мм0.9 м/с5 %
    06:00Небольшая облачность+18°C71 %743 мм0.8 м/с5 %
    09:00Ясно и безоблачно+25°C54 %744 мм1.2 м/с6 %
    12:00Практически безоблачно+28°C40 %743 мм1.5 м/с19 %
    15:00Практически безоблачно+29°C37 %743 мм1.9 м/с19 %
    18:00Практически безоблачно+27°C39 %742 мм1.2 м/с12 %
    21:00Ясно и безоблачно+22°C50 %743 мм0.7 м/с8 %
Мы используем cookies
Соглашаюсь